sensor_id;sensor_type;location;lat;lon;timestamp;pressure;altitude;pressure_sealevel;temperature;humidity
79285;BME280;68734;50.452;11.636;2023-06-14T00:02:11;95386.56;;;10.76;68.52
79285;BME280;68734;50.452;11.636;2023-06-14T00:04:37;95377.09;;;10.63;69.06
79285;BME280;68734;50.452;11.636;2023-06-14T00:07:06;95397.88;;;10.63;69.40
79285;BME280;68734;50.452;11.636;2023-06-14T00:09:35;95387.84;;;10.53;69.87
79285;BME280;68734;50.452;11.636;2023-06-14T00:12:01;95383.75;;;10.45;69.82
79285;BME280;68734;50.452;11.636;2023-06-14T00:14:26;95386.97;;;10.42;70.10
79285;BME280;68734;50.452;11.636;2023-06-14T00:16:51;95387.47;;;10.34;70.53
79285;BME280;68734;50.452;11.636;2023-06-14T00:19:24;95398.81;;;10.36;70.38
79285;BME280;68734;50.452;11.636;2023-06-14T00:21:50;95385.00;;;10.27;70.71
79285;BME280;68734;50.452;11.636;2023-06-14T00:24:17;95385.81;;;10.28;70.59
79285;BME280;68734;50.452;11.636;2023-06-14T00:26:42;95393.28;;;10.15;71.12
79285;BME280;68734;50.452;11.636;2023-06-14T00:29:08;95383.78;;;10.03;71.58
79285;BME280;68734;50.452;11.636;2023-06-14T00:31:35;95382.41;;;9.95;72.21
79285;BME280;68734;50.452;11.636;2023-06-14T00:34:01;95387.19;;;9.88;72.36
79285;BME280;68734;50.452;11.636;2023-06-14T00:36:26;95380.13;;;9.82;72.37
79285;BME280;68734;50.452;11.636;2023-06-14T00:38:52;95376.94;;;9.85;72.29
79285;BME280;68734;50.452;11.636;2023-06-14T00:41:17;95372.03;;;9.82;72.63
79285;BME280;68734;50.452;11.636;2023-06-14T00:43:43;95373.69;;;9.83;72.54
79285;BME280;68734;50.452;11.636;2023-06-14T00:46:08;95376.88;;;9.79;72.66
79285;BME280;68734;50.452;11.636;2023-06-14T00:48:34;95368.47;;;9.71;72.86
79285;BME280;68734;50.452;11.636;2023-06-14T00:51:01;95380.56;;;9.63;73.38
79285;BME280;68734;50.452;11.636;2023-06-14T00:53:30;95369.16;;;9.56;73.64
79285;BME280;68734;50.452;11.636;2023-06-14T00:55:56;95378.81;;;9.47;74.14
79285;BME280;68734;50.452;11.636;2023-06-14T00:58:22;95372.88;;;9.45;74.01
79285;BME280;68734;50.452;11.636;2023-06-14T01:00:52;95383.34;;;9.41;74.26
79285;BME280;68734;50.452;11.636;2023-06-14T01:03:20;95372.25;;;9.37;74.11
79285;BME280;68734;50.452;11.636;2023-06-14T01:05:47;95381.94;;;9.33;74.13
79285;BME280;68734;50.452;11.636;2023-06-14T01:08:25;95385.72;;;9.32;74.42
79285;BME280;68734;50.452;11.636;2023-06-14T01:11:02;95383.75;;;9.28;74.61
79285;BME280;68734;50.452;11.636;2023-06-14T01:13:39;95384.03;;;9.26;74.11
79285;BME280;68734;50.452;11.636;2023-06-14T01:16:08;95382.88;;;9.17;74.95
79285;BME280;68734;50.452;11.636;2023-06-14T01:18:34;95378.50;;;9.11;74.91
79285;BME280;68734;50.452;11.636;2023-06-14T01:21:00;95380.44;;;9.15;74.92
79285;BME280;68734;50.452;11.636;2023-06-14T01:23:31;95374.72;;;9.12;75.04
79285;BME280;68734;50.452;11.636;2023-06-14T01:25:58;95387.72;;;9.15;75.02
79285;BME280;68734;50.452;11.636;2023-06-14T01:28:26;95385.97;;;9.04;75.17
79285;BME280;68734;50.452;11.636;2023-06-14T01:30:59;95383.28;;;9.04;75.33
79285;BME280;68734;50.452;11.636;2023-06-14T01:33:26;95385.94;;;8.98;75.70
79285;BME280;68734;50.452;11.636;2023-06-14T01:35:53;95383.44;;;8.92;75.70
79285;BME280;68734;50.452;11.636;2023-06-14T01:38:23;95384.75;;;8.89;75.87
79285;BME280;68734;50.452;11.636;2023-06-14T01:40:49;95385.22;;;8.81;76.55
79285;BME280;68734;50.452;11.636;2023-06-14T01:43:18;95394.16;;;8.87;76.81
79285;BME280;68734;50.452;11.636;2023-06-14T01:45:47;95391.97;;;8.84;77.04
79285;BME280;68734;50.452;11.636;2023-06-14T01:48:16;95389.78;;;8.81;77.17
79285;BME280;68734;50.452;11.636;2023-06-14T01:50:42;95386.72;;;8.72;77.40
79285;BME280;68734;50.452;11.636;2023-06-14T01:53:08;95391.25;;;8.66;77.58
79285;BME280;68734;50.452;11.636;2023-06-14T01:55:34;95394.56;;;8.51;78.12
79285;BME280;68734;50.452;11.636;2023-06-14T01:58:02;95393.69;;;8.46;78.24
79285;BME280;68734;50.452;11.636;2023-06-14T02:00:28;95395.97;;;8.37;78.79
79285;BME280;68734;50.452;11.636;2023-06-14T02:02:53;95394.72;;;8.23;79.33
79285;BME280;68734;50.452;11.636;2023-06-14T02:05:19;95395.66;;;8.11;79.97
79285;BME280;68734;50.452;11.636;2023-06-14T02:07:47;95391.91;;;8.12;79.97
79285;BME280;68734;50.452;11.636;2023-06-14T02:10:13;95397.28;;;8.12;80.30
79285;BME280;68734;50.452;11.636;2023-06-14T02:12:39;95392.91;;;8.06;80.68
79285;BME280;68734;50.452;11.636;2023-06-14T02:15:05;95394.94;;;7.99;81.11
79285;BME280;68734;50.452;11.636;2023-06-14T02:17:32;95389.09;;;8.02;81.18
79285;BME280;68734;50.452;11.636;2023-06-14T02:19:58;95386.88;;;7.99;81.09
79285;BME280;68734;50.452;11.636;2023-06-14T02:22:23;95386.88;;;7.99;80.95
79285;BME280;68734;50.452;11.636;2023-06-14T02:24:48;95392.69;;;7.91;81.53
79285;BME280;68734;50.452;11.636;2023-06-14T02:27:15;95396.38;;;7.85;81.79
79285;BME280;68734;50.452;11.636;2023-06-14T02:29:40;95399.84;;;7.85;81.75
79285;BME280;68734;50.452;11.636;2023-06-14T02:32:06;95401.31;;;7.93;81.64
79285;BME280;68734;50.452;11.636;2023-06-14T02:34:33;95390.06;;;7.96;81.61
79285;BME280;68734;50.452;11.636;2023-06-14T02:36:59;95407.34;;;8.00;81.27
79285;BME280;68734;50.452;11.636;2023-06-14T02:39:24;95405.38;;;7.95;81.89
79285;BME280;68734;50.452;11.636;2023-06-14T02:41:50;95408.97;;;8.01;81.75
79285;BME280;68734;50.452;11.636;2023-06-14T02:44:17;95404.09;;;7.98;81.75
79285;BME280;68734;50.452;11.636;2023-06-14T02:46:43;95422.16;;;8.03;81.85
79285;BME280;68734;50.452;11.636;2023-06-14T02:49:10;95421.03;;;7.98;82.01
79285;BME280;68734;50.452;11.636;2023-06-14T02:51:35;95419.16;;;7.99;81.86
79285;BME280;68734;50.452;11.636;2023-06-14T02:54:00;95420.22;;;7.98;82.00
79285;BME280;68734;50.452;11.636;2023-06-14T02:56:26;95420.72;;;7.95;82.14
79285;BME280;68734;50.452;11.636;2023-06-14T02:58:53;95413.38;;;7.90;82.17
79285;BME280;68734;50.452;11.636;2023-06-14T03:01:18;95413.88;;;7.87;82.33
79285;BME280;68734;50.452;11.636;2023-06-14T03:03:45;95410.63;;;7.85;82.41
79285;BME280;68734;50.452;11.636;2023-06-14T03:06:13;95416.31;;;7.89;82.62
79285;BME280;68734;50.452;11.636;2023-06-14T03:08:41;95418.91;;;7.84;82.90
79285;BME280;68734;50.452;11.636;2023-06-14T03:11:07;95415.59;;;7.76;83.34
79285;BME280;68734;50.452;11.636;2023-06-14T03:13:36;95418.75;;;7.73;82.94
79285;BME280;68734;50.452;11.636;2023-06-14T03:16:02;95421.59;;;7.84;82.58
79285;BME280;68734;50.452;11.636;2023-06-14T03:18:30;95425.47;;;7.88;82.69
79285;BME280;68734;50.452;11.636;2023-06-14T03:20:56;95426.88;;;7.95;82.20
79285;BME280;68734;50.452;11.636;2023-06-14T03:23:24;95420.38;;;8.08;81.52
79285;BME280;68734;50.452;11.636;2023-06-14T03:25:52;95413.94;;;8.48;79.96
79285;BME280;68734;50.452;11.636;2023-06-14T03:28:18;95419.59;;;8.74;78.82
79285;BME280;68734;50.452;11.636;2023-06-14T03:30:43;95420.97;;;8.98;77.53
79285;BME280;68734;50.452;11.636;2023-06-14T03:33:09;95425.25;;;8.99;77.83
79285;BME280;68734;50.452;11.636;2023-06-14T03:35:36;95429.25;;;9.19;77.01
79285;BME280;68734;50.452;11.636;2023-06-14T03:38:02;95429.66;;;9.65;75.34
79285;BME280;68734;50.452;11.636;2023-06-14T03:40:30;95431.69;;;9.85;74.25
79285;BME280;68734;50.452;11.636;2023-06-14T03:42:56;95427.78;;;10.03;73.46
79285;BME280;68734;50.452;11.636;2023-06-14T03:45:21;95439.22;;;10.21;72.74
79285;BME280;68734;50.452;11.636;2023-06-14T03:47:47;95431.78;;;10.38;72.15
79285;BME280;68734;50.452;11.636;2023-06-14T03:50:13;95441.59;;;10.60;71.80
79285;BME280;68734;50.452;11.636;2023-06-14T03:52:38;95441.78;;;11.06;69.75
79285;BME280;68734;50.452;11.636;2023-06-14T03:55:05;95441.50;;;11.12;69.41
79285;BME280;68734;50.452;11.636;2023-06-14T03:57:30;95443.50;;;11.58;67.46
79285;BME280;68734;50.452;11.636;2023-06-14T03:59:56;95449.19;;;11.51;67.82
79285;BME280;68734;50.452;11.636;2023-06-14T04:02:22;95458.66;;;11.59;67.52
79285;BME280;68734;50.452;11.636;2023-06-14T04:04:48;95463.00;;;11.75;67.02
79285;BME280;68734;50.452;11.636;2023-06-14T04:07:17;95464.34;;;11.63;67.37
79285;BME280;68734;50.452;11.636;2023-06-14T04:09:45;95466.78;;;11.59;67.83
79285;BME280;68734;50.452;11.636;2023-06-14T04:12:11;95465.91;;;11.23;69.33
79285;BME280;68734;50.452;11.636;2023-06-14T04:14:37;95470.56;;;11.73;67.89
79285;BME280;68734;50.452;11.636;2023-06-14T04:17:03;95470.06;;;12.17;66.08
79285;BME280;68734;50.452;11.636;2023-06-14T04:19:29;95475.34;;;12.74;63.81
79285;BME280;68734;50.452;11.636;2023-06-14T04:21:54;95476.94;;;12.80;63.49
79285;BME280;68734;50.452;11.636;2023-06-14T04:24:23;95473.78;;;12.47;64.39
79285;BME280;68734;50.452;11.636;2023-06-14T04:26:57;95486.72;;;12.76;63.48
79285;BME280;68734;50.452;11.636;2023-06-14T04:29:24;95480.22;;;12.77;63.47
79285;BME280;68734;50.452;11.636;2023-06-14T04:31:52;95489.66;;;12.85;63.54
79285;BME280;68734;50.452;11.636;2023-06-14T04:34:17;95485.53;;;13.13;62.63
79285;BME280;68734;50.452;11.636;2023-06-14T04:36:45;95492.75;;;13.28;61.84
79285;BME280;68734;50.452;11.636;2023-06-14T04:39:17;95490.19;;;13.57;61.41
79285;BME280;68734;50.452;11.636;2023-06-14T04:41:49;95487.69;;;13.06;62.79
79285;BME280;68734;50.452;11.636;2023-06-14T04:44:23;95482.59;;;13.59;61.40
79285;BME280;68734;50.452;11.636;2023-06-14T04:46:49;95479.66;;;13.85;60.36
79285;BME280;68734;50.452;11.636;2023-06-14T04:49:15;95483.31;;;13.70;60.99
79285;BME280;68734;50.452;11.636;2023-06-14T04:51:42;95494.44;;;13.68;61.20
79285;BME280;68734;50.452;11.636;2023-06-14T04:54:08;95484.47;;;13.98;59.87
79285;BME280;68734;50.452;11.636;2023-06-14T04:56:41;95489.00;;;13.73;60.90
79285;BME280;68734;50.452;11.636;2023-06-14T04:59:07;95505.78;;;13.31;62.15
79285;BME280;68734;50.452;11.636;2023-06-14T05:01:34;95500.75;;;12.93;63.15
79285;BME280;68734;50.452;11.636;2023-06-14T05:04:02;95497.84;;;13.45;62.46
79285;BME280;68734;50.452;11.636;2023-06-14T05:06:30;95486.97;;;13.50;61.51
79285;BME280;68734;50.452;11.636;2023-06-14T05:08:56;95503.38;;;13.29;62.05
79285;BME280;68734;50.452;11.636;2023-06-14T05:11:21;95495.31;;;13.59;60.68
79285;BME280;68734;50.452;11.636;2023-06-14T05:13:49;95497.72;;;13.10;62.54
79285;BME280;68734;50.452;11.636;2023-06-14T05:16:15;95488.69;;;13.35;61.72
79285;BME280;68734;50.452;11.636;2023-06-14T05:18:42;95483.97;;;13.91;60.37
79285;BME280;68734;50.452;11.636;2023-06-14T05:21:07;95494.41;;;14.42;58.86
79285;BME280;68734;50.452;11.636;2023-06-14T05:23:33;95490.84;;;15.24;56.37
79285;BME280;68734;50.452;11.636;2023-06-14T05:25:59;95489.97;;;15.05;56.25
79285;BME280;68734;50.452;11.636;2023-06-14T05:28:25;95494.31;;;15.49;55.24
79285;BME280;68734;50.452;11.636;2023-06-14T05:30:53;95484.88;;;15.22;55.10
79285;BME280;68734;50.452;11.636;2023-06-14T05:33:18;95496.75;;;14.54;57.18
79285;BME280;68734;50.452;11.636;2023-06-14T05:35:46;95499.91;;;15.39;55.97
79285;BME280;68734;50.452;11.636;2023-06-14T05:38:12;95514.50;;;15.24;55.77
79285;BME280;68734;50.452;11.636;2023-06-14T05:40:37;95503.59;;;15.67;53.95
79285;BME280;68734;50.452;11.636;2023-06-14T05:43:03;95509.03;;;15.67;54.18
79285;BME280;68734;50.452;11.636;2023-06-14T05:45:28;95509.81;;;15.72;54.39
79285;BME280;68734;50.452;11.636;2023-06-14T05:47:56;95505.50;;;16.23;52.92
79285;BME280;68734;50.452;11.636;2023-06-14T05:50:22;95507.69;;;16.40;51.77
79285;BME280;68734;50.452;11.636;2023-06-14T05:52:47;95510.66;;;16.25;52.33
79285;BME280;68734;50.452;11.636;2023-06-14T05:55:16;95512.94;;;16.50;51.57
79285;BME280;68734;50.452;11.636;2023-06-14T05:57:44;95505.09;;;16.63;50.95
79285;BME280;68734;50.452;11.636;2023-06-14T06:00:09;95511.91;;;16.13;51.93
79285;BME280;68734;50.452;11.636;2023-06-14T06:02:42;95522.50;;;16.34;52.23
79285;BME280;68734;50.452;11.636;2023-06-14T06:05:09;95520.19;;;16.74;50.92
79285;BME280;68734;50.452;11.636;2023-06-14T06:07:34;95513.16;;;16.87;50.17
79285;BME280;68734;50.452;11.636;2023-06-14T06:10:00;95508.75;;;17.83;48.67
79285;BME280;68734;50.452;11.636;2023-06-14T06:12:28;95506.28;;;17.03;49.89
79285;BME280;68734;50.452;11.636;2023-06-14T06:14:53;95513.19;;;16.68;50.92
79285;BME280;68734;50.452;11.636;2023-06-14T06:17:19;95514.81;;;17.80;48.49
79285;BME280;68734;50.452;11.636;2023-06-14T06:19:44;95513.88;;;17.20;49.61
79285;BME280;68734;50.452;11.636;2023-06-14T06:22:09;95506.97;;;16.81;50.19
79285;BME280;68734;50.452;11.636;2023-06-14T06:24:35;95514.56;;;17.40;49.20
79285;BME280;68734;50.452;11.636;2023-06-14T06:27:03;95522.72;;;17.67;48.80
79285;BME280;68734;50.452;11.636;2023-06-14T06:29:31;95513.94;;;18.07;47.22
79285;BME280;68734;50.452;11.636;2023-06-14T06:31:57;95524.19;;;17.37;49.49
79285;BME280;68734;50.452;11.636;2023-06-14T06:34:22;95508.56;;;17.65;48.13
79285;BME280;68734;50.452;11.636;2023-06-14T06:36:50;95518.47;;;17.61;48.92
79285;BME280;68734;50.452;11.636;2023-06-14T06:39:15;95518.91;;;17.41;49.15
79285;BME280;68734;50.452;11.636;2023-06-14T06:41:41;95514.19;;;17.83;48.70
79285;BME280;68734;50.452;11.636;2023-06-14T06:44:07;95518.63;;;17.28;49.08
79285;BME280;68734;50.452;11.636;2023-06-14T06:46:33;95524.66;;;17.53;49.35
79285;BME280;68734;50.452;11.636;2023-06-14T06:49:00;95520.34;;;16.97;49.90
79285;BME280;68734;50.452;11.636;2023-06-14T06:51:25;95524.53;;;16.42;51.82
79285;BME280;68734;50.452;11.636;2023-06-14T06:53:56;95516.13;;;15.87;52.70
79285;BME280;68734;50.452;11.636;2023-06-14T06:56:22;95521.25;;;15.69;55.03
79285;BME280;68734;50.452;11.636;2023-06-14T06:58:52;95525.59;;;15.70;53.81
79285;BME280;68734;50.452;11.636;2023-06-14T07:01:18;95525.81;;;15.55;54.66
79285;BME280;68734;50.452;11.636;2023-06-14T07:03:45;95535.00;;;15.16;55.93
79285;BME280;68734;50.452;11.636;2023-06-14T07:06:10;95530.22;;;14.79;56.23
79285;BME280;68734;50.452;11.636;2023-06-14T07:08:36;95534.47;;;14.61;57.15
79285;BME280;68734;50.452;11.636;2023-06-14T07:11:04;95534.56;;;14.50;57.87
79285;BME280;68734;50.452;11.636;2023-06-14T07:13:30;95545.31;;;14.66;57.92
79285;BME280;68734;50.452;11.636;2023-06-14T07:15:58;95543.41;;;14.66;57.71
79285;BME280;68734;50.452;11.636;2023-06-14T07:18:24;95546.13;;;14.32;59.13
79285;BME280;68734;50.452;11.636;2023-06-14T07:20:49;95540.72;;;13.92;59.81
79285;BME280;68734;50.452;11.636;2023-06-14T07:23:15;95543.94;;;13.94;60.58
79285;BME280;68734;50.452;11.636;2023-06-14T07:25:40;95542.16;;;13.80;60.74
79285;BME280;68734;50.452;11.636;2023-06-14T07:28:06;95550.91;;;13.71;60.52
79285;BME280;68734;50.452;11.636;2023-06-14T07:30:32;95542.09;;;13.90;60.84
79285;BME280;68734;50.452;11.636;2023-06-14T07:32:57;95550.63;;;13.68;61.71
79285;BME280;68734;50.452;11.636;2023-06-14T07:35:23;95555.75;;;13.74;60.86
79285;BME280;68734;50.452;11.636;2023-06-14T07:37:48;95567.66;;;13.79;62.35
79285;BME280;68734;50.452;11.636;2023-06-14T07:40:15;95566.72;;;13.54;62.10
79285;BME280;68734;50.452;11.636;2023-06-14T07:42:40;95563.72;;;13.55;62.36
79285;BME280;68734;50.452;11.636;2023-06-14T07:45:06;95559.06;;;13.66;62.13
79285;BME280;68734;50.452;11.636;2023-06-14T07:47:32;95559.84;;;13.72;63.26
79285;BME280;68734;50.452;11.636;2023-06-14T07:49:58;95571.09;;;13.94;62.30
79285;BME280;68734;50.452;11.636;2023-06-14T07:52:23;95569.84;;;13.82;61.17
79285;BME280;68734;50.452;11.636;2023-06-14T07:54:49;95560.69;;;13.67;61.99
79285;BME280;68734;50.452;11.636;2023-06-14T07:57:14;95558.56;;;13.59;61.62
79285;BME280;68734;50.452;11.636;2023-06-14T07:59:40;95562.94;;;13.45;62.54
79285;BME280;68734;50.452;11.636;2023-06-14T08:02:06;95563.41;;;13.62;62.73
79285;BME280;68734;50.452;11.636;2023-06-14T08:04:33;95574.28;;;13.62;62.32
79285;BME280;68734;50.452;11.636;2023-06-14T08:06:59;95558.50;;;13.69;61.74
79285;BME280;68734;50.452;11.636;2023-06-14T08:09:27;95563.28;;;13.83;62.44
79285;BME280;68734;50.452;11.636;2023-06-14T08:11:59;95571.88;;;14.05;60.63
79285;BME280;68734;50.452;11.636;2023-06-14T08:14:27;95573.28;;;14.32;60.98
79285;BME280;68734;50.452;11.636;2023-06-14T08:16:56;95568.84;;;14.41;58.93
79285;BME280;68734;50.452;11.636;2023-06-14T08:19:22;95562.06;;;14.09;58.92
79285;BME280;68734;50.452;11.636;2023-06-14T08:21:47;95562.38;;;14.37;59.51
79285;BME280;68734;50.452;11.636;2023-06-14T08:24:13;95569.63;;;14.47;58.31
79285;BME280;68734;50.452;11.636;2023-06-14T08:26:39;95546.22;;;14.16;58.99
79285;BME280;68734;50.452;11.636;2023-06-14T08:29:05;95573.66;;;14.54;58.91
79285;BME280;68734;50.452;11.636;2023-06-14T08:31:32;95555.75;;;14.48;57.91
79285;BME280;68734;50.452;11.636;2023-06-14T08:33:58;95573.38;;;14.22;58.73
79285;BME280;68734;50.452;11.636;2023-06-14T08:36:23;95561.97;;;14.20;58.91
79285;BME280;68734;50.452;11.636;2023-06-14T08:38:49;95566.19;;;14.36;58.85
79285;BME280;68734;50.452;11.636;2023-06-14T08:41:23;95571.28;;;14.77;57.84
79285;BME280;68734;50.452;11.636;2023-06-14T08:43:50;95567.91;;;14.90;57.70
79285;BME280;68734;50.452;11.636;2023-06-14T08:46:17;95564.34;;;14.66;56.82
79285;BME280;68734;50.452;11.636;2023-06-14T08:48:46;95570.47;;;15.06;56.58
79285;BME280;68734;50.452;11.636;2023-06-14T08:51:13;95550.41;;;15.02;56.11
79285;BME280;68734;50.452;11.636;2023-06-14T08:53:41;95572.69;;;15.04;55.94
79285;BME280;68734;50.452;11.636;2023-06-14T08:56:08;95573.88;;;15.16;54.74
79285;BME280;68734;50.452;11.636;2023-06-14T08:58:44;95574.56;;;15.27;55.01
79285;BME280;68734;50.452;11.636;2023-06-14T09:01:11;95580.19;;;15.60;54.90
79285;BME280;68734;50.452;11.636;2023-06-14T09:03:42;95568.66;;;15.68;53.22
79285;BME280;68734;50.452;11.636;2023-06-14T09:06:08;95567.13;;;15.81;53.43
79285;BME280;68734;50.452;11.636;2023-06-14T09:08:42;95579.28;;;15.89;51.80
79285;BME280;68734;50.452;11.636;2023-06-14T09:11:11;95575.66;;;15.74;53.85
79285;BME280;68734;50.452;11.636;2023-06-14T09:13:37;95578.03;;;15.57;54.11
79285;BME280;68734;50.452;11.636;2023-06-14T09:16:03;95573.63;;;15.61;53.52
79285;BME280;68734;50.452;11.636;2023-06-14T09:18:34;95574.56;;;15.51;54.17
79285;BME280;68734;50.452;11.636;2023-06-14T09:21:00;95580.38;;;15.45;54.15
79285;BME280;68734;50.452;11.636;2023-06-14T09:23:26;95587.75;;;15.63;53.01
79285;BME280;68734;50.452;11.636;2023-06-14T09:25:51;95584.88;;;15.54;53.81
79285;BME280;68734;50.452;11.636;2023-06-14T09:28:17;95581.13;;;15.69;54.42
79285;BME280;68734;50.452;11.636;2023-06-14T09:30:42;95588.28;;;16.08;53.36
79285;BME280;68734;50.452;11.636;2023-06-14T09:33:08;95590.50;;;16.06;52.66
79285;BME280;68734;50.452;11.636;2023-06-14T09:35:34;95585.47;;;16.13;52.21
79285;BME280;68734;50.452;11.636;2023-06-14T09:38:00;95590.47;;;16.44;50.83
79285;BME280;68734;50.452;11.636;2023-06-14T09:40:26;95580.59;;;16.48;51.11
79285;BME280;68734;50.452;11.636;2023-06-14T09:42:53;95592.28;;;16.68;50.52
79285;BME280;68734;50.452;11.636;2023-06-14T09:45:19;95593.56;;;16.89;49.63
79285;BME280;68734;50.452;11.636;2023-06-14T09:47:50;95587.59;;;16.87;49.33
79285;BME280;68734;50.452;11.636;2023-06-14T09:50:16;95580.88;;;16.66;50.46
79285;BME280;68734;50.452;11.636;2023-06-14T09:52:43;95594.72;;;16.50;50.06
79285;BME280;68734;50.452;11.636;2023-06-14T09:55:12;95582.81;;;16.46;50.00
79285;BME280;68734;50.452;11.636;2023-06-14T09:57:41;95588.44;;;15.98;51.46
79285;BME280;68734;50.452;11.636;2023-06-14T10:00:08;95596.00;;;16.01;53.31
79285;BME280;68734;50.452;11.636;2023-06-14T10:02:37;95583.31;;;16.29;50.99
79285;BME280;68734;50.452;11.636;2023-06-14T10:07:35;95582.16;;;16.17;50.31
79285;BME280;68734;50.452;11.636;2023-06-14T10:10:04;95579.50;;;16.30;50.76
79285;BME280;68734;50.452;11.636;2023-06-14T10:12:31;95580.47;;;16.21;51.09
79285;BME280;68734;50.452;11.636;2023-06-14T10:14:56;95575.97;;;16.30;51.31
79285;BME280;68734;50.452;11.636;2023-06-14T10:20:03;95587.41;;;16.32;51.40
79285;BME280;68734;50.452;11.636;2023-06-14T10:22:42;95602.50;;;16.76;50.57
79285;BME280;68734;50.452;11.636;2023-06-14T10:25:12;95585.19;;;16.86;48.94
79285;BME280;68734;50.452;11.636;2023-06-14T10:27:38;95591.91;;;17.49;48.45
79285;BME280;68734;50.452;11.636;2023-06-14T10:30:05;95583.63;;;17.54;46.99
79285;BME280;68734;50.452;11.636;2023-06-14T10:32:32;95593.88;;;17.02;46.48
79285;BME280;68734;50.452;11.636;2023-06-14T10:35:06;95590.97;;;16.79;48.08
79285;BME280;68734;50.452;11.636;2023-06-14T10:37:34;95585.31;;;16.94;47.24
79285;BME280;68734;50.452;11.636;2023-06-14T10:40:00;95589.28;;;17.30;48.18
79285;BME280;68734;50.452;11.636;2023-06-14T10:42:32;95592.63;;;16.80;48.55
79285;BME280;68734;50.452;11.636;2023-06-14T10:44:58;95590.22;;;16.60;49.44
79285;BME280;68734;50.452;11.636;2023-06-14T10:47:36;95587.66;;;16.49;50.07
79285;BME280;68734;50.452;11.636;2023-06-14T10:52:34;95586.13;;;16.76;50.31
79285;BME280;68734;50.452;11.636;2023-06-14T10:57:34;95576.34;;;17.08;50.00
79285;BME280;68734;50.452;11.636;2023-06-14T11:00:02;95576.97;;;17.32;48.32
79285;BME280;68734;50.452;11.636;2023-06-14T11:03:11;95554.69;;;17.25;48.41
79285;BME280;68734;50.452;11.636;2023-06-14T11:05:51;95576.69;;;16.87;49.38
79285;BME280;68734;50.452;11.636;2023-06-14T11:10:58;95566.53;;;16.74;47.55
79285;BME280;68734;50.452;11.636;2023-06-14T11:13:25;95572.00;;;16.74;48.29
79285;BME280;68734;50.452;11.636;2023-06-14T11:15:51;95575.00;;;16.72;47.92
79285;BME280;68734;50.452;11.636;2023-06-14T11:18:19;95585.22;;;17.13;47.40
79285;BME280;68734;50.452;11.636;2023-06-14T11:20:46;95582.22;;;17.43;46.94
79285;BME280;68734;50.452;11.636;2023-06-14T11:23:12;95573.81;;;17.25;45.62
79285;BME280;68734;50.452;11.636;2023-06-14T11:25:37;95563.81;;;17.34;45.97
79285;BME280;68734;50.452;11.636;2023-06-14T11:28:03;95562.38;;;17.23;46.17
79285;BME280;68734;50.452;11.636;2023-06-14T11:30:28;95566.53;;;17.21;45.61
79285;BME280;68734;50.452;11.636;2023-06-14T11:32:54;95572.25;;;16.91;47.14
79285;BME280;68734;50.452;11.636;2023-06-14T11:35:24;95579.72;;;16.86;47.06
79285;BME280;68734;50.452;11.636;2023-06-14T11:37:53;95568.16;;;16.75;47.05
79285;BME280;68734;50.452;11.636;2023-06-14T11:40:25;95568.00;;;16.85;47.03
79285;BME280;68734;50.452;11.636;2023-06-14T11:42:58;95558.84;;;17.09;45.41
79285;BME280;68734;50.452;11.636;2023-06-14T11:45:24;95572.50;;;17.37;46.87
79285;BME280;68734;50.452;11.636;2023-06-14T11:47:50;95560.75;;;17.50;44.88
79285;BME280;68734;50.452;11.636;2023-06-14T11:50:15;95547.44;;;17.62;44.22
79285;BME280;68734;50.452;11.636;2023-06-14T11:52:41;95540.91;;;17.86;44.80
79285;BME280;68734;50.452;11.636;2023-06-14T11:55:06;95549.25;;;17.53;43.41
79285;BME280;68734;50.452;11.636;2023-06-14T11:57:35;95556.72;;;17.20;43.92
79285;BME280;68734;50.452;11.636;2023-06-14T12:00:07;95555.63;;;17.34;44.34
79285;BME280;68734;50.452;11.636;2023-06-14T12:02:37;95550.06;;;17.12;44.66
79285;BME280;68734;50.452;11.636;2023-06-14T12:05:06;95557.13;;;17.41;43.99
79285;BME280;68734;50.452;11.636;2023-06-14T12:07:37;95546.97;;;17.83;43.67
79285;BME280;68734;50.452;11.636;2023-06-14T12:12:35;95559.34;;;17.66;43.03
79285;BME280;68734;50.452;11.636;2023-06-14T12:15:09;95552.47;;;17.55;43.07
79285;BME280;68734;50.452;11.636;2023-06-14T12:17:39;95535.38;;;17.63;42.38
79285;BME280;68734;50.452;11.636;2023-06-14T12:20:12;95552.25;;;17.65;42.28
79285;BME280;68734;50.452;11.636;2023-06-14T12:25:29;95542.38;;;18.42;42.17
79285;BME280;68734;50.452;11.636;2023-06-14T12:28:03;95545.22;;;18.37;40.92
79285;BME280;68734;50.452;11.636;2023-06-14T12:30:29;95537.38;;;18.22;41.86
79285;BME280;68734;50.452;11.636;2023-06-14T12:32:54;95541.97;;;17.62;42.28
79285;BME280;68734;50.452;11.636;2023-06-14T12:35:20;95553.59;;;17.54;42.95
79285;BME280;68734;50.452;11.636;2023-06-14T12:37:46;95545.50;;;17.49;42.51
79285;BME280;68734;50.452;11.636;2023-06-14T12:40:12;95539.03;;;17.45;42.88
79285;BME280;68734;50.452;11.636;2023-06-14T12:42:39;95540.34;;;17.47;43.07
79285;BME280;68734;50.452;11.636;2023-06-14T12:45:05;95553.09;;;17.52;43.41
79285;BME280;68734;50.452;11.636;2023-06-14T12:47:30;95565.09;;;17.79;43.88
79285;BME280;68734;50.452;11.636;2023-06-14T12:49:56;95532.06;;;17.52;42.84
79285;BME280;68734;50.452;11.636;2023-06-14T12:52:21;95551.88;;;17.44;43.38
79285;BME280;68734;50.452;11.636;2023-06-14T12:54:47;95546.59;;;17.48;42.91
79285;BME280;68734;50.452;11.636;2023-06-14T12:57:12;95543.56;;;17.63;42.22
79285;BME280;68734;50.452;11.636;2023-06-14T12:59:37;95546.97;;;17.97;42.56
79285;BME280;68734;50.452;11.636;2023-06-14T13:02:17;95549.94;;;18.23;40.91
79285;BME280;68734;50.452;11.636;2023-06-14T13:04:45;95548.81;;;18.24;40.16
79285;BME280;68734;50.452;11.636;2023-06-14T13:07:11;95545.59;;;18.44;39.96
79285;BME280;68734;50.452;11.636;2023-06-14T13:09:37;95533.41;;;18.50;38.83
79285;BME280;68734;50.452;11.636;2023-06-14T13:12:02;95539.97;;;18.72;39.64